Time;durP1;ratioP1;P1;durP2;ratioP2;P2;SDS_P1;SDS_P2;PMS_P1;PMS_P2;Temp;Humidity;BMP_temperature;BMP_pressure;BME280_temperature;BME280_humidity;BME280_pressure;Samples;Min_cycle;Max_cycle;Signal;HPM_P1;HPM_P2
2021/09/23 00:00:55;;;;;;;;;;;;;;;16.08;100.00;99707.81;5100615;28;19954;-65
2021/09/23 00:03:33;;;;;;;;;;;;;;;15.97;100.00;99708.25;5099907;28;20011;-66
2021/09/23 00:05:58;;;;;;;;;;;;;;;16.15;100.00;99708.34;5100294;28;19924;-65
2021/09/23 00:08:23;;;;;;;;;;;;;;;15.79;100.00;99707.28;5082134;28;20540;-65
2021/09/23 00:10:49;;;;;;;;;;;;;;;15.83;100.00;99701.06;5100729;28;20349;-65
2021/09/23 00:13:14;;;;;;;;;;;;;;;15.74;100.00;99700.59;5099892;28;19915;-65
2021/09/23 00:15:40;;;;;;;;;;;;;;;15.75;100.00;99694.50;5064159;28;19973;-65
2021/09/23 00:18:15;;;;;;;;;;;;;;;15.78;100.00;99697.81;5099368;28;19919;-65
2021/09/23 00:20:42;;;;;;;;;;;;;;;15.74;100.00;99687.63;5100306;28;19913;-65
2021/09/23 00:23:08;;;;;;;;;;;;;;;15.81;100.00;99679.50;5096248;28;20142;-65
2021/09/23 00:25:33;;;;;;;;;;;;;;;15.73;100.00;99686.75;5100418;28;19996;-65
2021/09/23 00:27:59;;;;;;;;;;;;;;;15.59;100.00;99684.72;5083553;28;20453;-65
2021/09/23 00:30:24;;;;;;;;;;;;;;;15.32;100.00;99681.50;5100137;28;19912;-65
2021/09/23 00:32:50;;;;;;;;;;;;;;;15.12;100.00;99666.75;5101158;28;20353;-66
2021/09/23 00:35:16;;;;;;;;;;;;;;;15.27;100.00;99667.88;5100636;28;19915;-63
2021/09/23 00:37:42;;;;;;;;;;;;;;;15.23;100.00;99661.09;5081601;28;19923;-65
2021/09/23 00:40:08;;;;;;;;;;;;;;;15.07;100.00;99650.50;5080884;28;19920;-65
2021/09/23 00:42:34;;;;;;;;;;;;;;;15.17;100.00;99645.81;5098674;28;20010;-65
2021/09/23 00:45:00;;;;;;;;;;;;;;;15.59;100.00;99652.72;5100133;28;19918;-65
2021/09/23 00:47:26;;;;;;;;;;;;;;;15.40;100.00;99652.66;5100002;28;19915;-65
2021/09/23 00:49:51;;;;;;;;;;;;;;;15.23;100.00;99651.56;5081222;28;19915;-65
2021/09/23 00:52:19;;;;;;;;;;;;;;;15.12;100.00;99637.34;5100601;28;19915;-65
2021/09/23 00:54:44;;;;;;;;;;;;;;;14.96;100.00;99627.59;5080629;28;20041;-62
2021/09/23 00:57:10;;;;;;;;;;;;;;;14.71;100.00;99621.69;5098233;28;20624;-62
2021/09/23 00:59:35;;;;;;;;;;;;;;;14.77;100.00;99601.53;5097986;28;19927;-62
2021/09/23 01:02:01;;;;;;;;;;;;;;;15.03;100.00;99607.44;5101162;28;19916;-65
2021/09/23 01:04:26;;;;;;;;;;;;;;;15.31;100.00;99591.59;5100027;28;19922;-65
2021/09/23 01:06:52;;;;;;;;;;;;;;;14.99;100.00;99600.69;5098625;28;20321;-65
2021/09/23 01:09:17;;;;;;;;;;;;;;;15.24;100.00;99600.53;5099953;28;20483;-63
2021/09/23 01:11:43;;;;;;;;;;;;;;;15.35;100.00;99603.53;5097042;28;20416;-63
2021/09/23 01:14:08;;;;;;;;;;;;;;;15.12;100.00;99599.28;5099529;28;20785;-65
2021/09/23 01:16:33;;;;;;;;;;;;;;;14.83;100.00;99587.50;5096578;28;20019;-65
2021/09/23 01:18:59;;;;;;;;;;;;;;;15.15;100.00;99585.34;5101031;28;19994;-63
2021/09/23 01:21:24;;;;;;;;;;;;;;;15.09;100.00;99577.81;5099412;28;20358;-65
2021/09/23 01:23:50;;;;;;;;;;;;;;;15.20;100.00;99578.22;5098979;28;19916;-63
2021/09/23 01:26:23;;;;;;;;;;;;;;;15.21;100.00;99582.47;5098573;28;19931;-65
2021/09/23 01:28:49;;;;;;;;;;;;;;;15.17;100.00;99567.97;5081124;28;19923;-65
2021/09/23 01:31:14;;;;;;;;;;;;;;;15.16;100.00;99566.28;5097822;28;19916;-64
2021/09/23 01:33:40;;;;;;;;;;;;;;;15.17;100.00;99560.19;5100295;28;19916;-65
2021/09/23 01:36:05;;;;;;;;;;;;;;;15.23;100.00;99572.88;5097103;28;19923;-65
2021/09/23 01:38:30;;;;;;;;;;;;;;;15.24;100.00;99579.78;5098146;28;19911;-65
2021/09/23 01:40:56;;;;;;;;;;;;;;;15.25;100.00;99576.25;5079934;28;19963;-63
2021/09/23 01:43:22;;;;;;;;;;;;;;;15.13;100.00;99575.03;5082567;28;19912;-63
2021/09/23 01:45:47;;;;;;;;;;;;;;;15.14;100.00;99561.13;5098286;28;19973;-63
2021/09/23 01:48:12;;;;;;;;;;;;;;;15.13;100.00;99562.06;5099352;28;19915;-63
2021/09/23 01:50:38;;;;;;;;;;;;;;;15.18;100.00;99560.09;5096202;28;19923;-65
2021/09/23 01:53:04;;;;;;;;;;;;;;;15.06;100.00;99553.69;5081026;28;19923;-64
2021/09/23 01:55:29;;;;;;;;;;;;;;;15.09;100.00;99544.94;5098347;28;19927;-65
2021/09/23 01:57:54;;;;;;;;;;;;;;;15.15;100.00;99549.03;5099015;28;20618;-65
2021/09/23 02:00:19;;;;;;;;;;;;;;;15.12;100.00;99549.13;5098528;28;20002;-65
2021/09/23 02:02:45;;;;;;;;;;;;;;;14.98;100.00;99547.97;5099647;28;19998;-65
2021/09/23 02:05:10;;;;;;;;;;;;;;;15.06;100.00;99540.72;5104654;28;19935;-65
2021/09/23 02:07:36;;;;;;;;;;;;;;;14.99;100.00;99528.91;5104464;28;19924;-65
2021/09/23 02:10:01;;;;;;;;;;;;;;;14.94;100.00;99524.81;5104081;28;19916;-63
2021/09/23 02:12:26;;;;;;;;;;;;;;;14.96;100.00;99521.28;5087066;28;19920;-65
2021/09/23 02:14:52;;;;;;;;;;;;;;;14.96;100.00;99518.69;5103485;28;20563;-65
2021/09/23 02:17:17;;;;;;;;;;;;;;;14.99;100.00;99518.53;5101399;28;19916;-62
2021/09/23 02:19:42;;;;;;;;;;;;;;;14.96;100.00;99518.69;5104121;28;20296;-62
2021/09/23 02:22:08;;;;;;;;;;;;;;;14.95;100.00;99519.56;5100568;28;19927;-65
2021/09/23 02:24:33;;;;;;;;;;;;;;;14.91;100.00;99515.41;5084226;28;19911;-65
2021/09/23 02:26:58;;;;;;;;;;;;;;;14.94;100.00;99510.13;5101960;28;19944;-65
2021/09/23 02:29:24;;;;;;;;;;;;;;;14.76;100.00;99506.53;5102044;28;19919;-62
2021/09/23 02:31:49;;;;;;;;;;;;;;;14.85;100.00;99502.72;5102682;28;19912;-63
2021/09/23 02:34:14;;;;;;;;;;;;;;;14.71;100.00;99507.59;5070725;28;19916;-65
2021/09/23 02:36:40;;;;;;;;;;;;;;;14.59;100.00;99503.75;5102354;28;19928;-63
2021/09/23 02:39:05;;;;;;;;;;;;;;;14.87;100.00;99507.81;5103112;28;19915;-65
2021/09/23 02:41:31;;;;;;;;;;;;;;;15.02;100.00;99500.25;5099722;28;20346;-64
2021/09/23 02:43:58;;;;;;;;;;;;;;;14.79;100.00;99500.38;5103342;28;20327;-63
2021/09/23 02:46:23;;;;;;;;;;;;;;;14.59;100.00;99504.59;5085015;28;19919;-65
2021/09/23 02:48:48;;;;;;;;;;;;;;;14.89;100.00;99506.84;5083687;28;20312;-62
2021/09/23 02:51:14;;;;;;;;;;;;;;;15.03;100.00;99499.34;5100575;28;19916;-64
2021/09/23 02:53:39;;;;;;;;;;;;;;;14.79;100.00;99497.78;5067751;28;19919;-64
2021/09/23 02:56:04;;;;;;;;;;;;;;;14.68;100.00;99489.59;5102380;28;21001;-63
2021/09/23 02:58:30;;;;;;;;;;;;;;;14.66;100.00;99499.19;5102810;28;20014;-62
2021/09/23 03:00:55;;;;;;;;;;;;;;;14.76;100.00;99490.97;5101358;28;20393;-62
2021/09/23 03:03:20;;;;;;;;;;;;;;;14.33;100.00;99492.66;5100438;28;19915;-62
2021/09/23 03:05:46;;;;;;;;;;;;;;;14.38;100.00;99489.91;5099868;28;20018;-64
2021/09/23 03:08:11;;;;;;;;;;;;;;;14.75;100.00;99480.66;5100607;28;19919;-65
2021/09/23 03:10:36;;;;;;;;;;;;;;;14.91;100.00;99484.28;5100461;28;19923;-62
2021/09/23 03:13:02;;;;;;;;;;;;;;;14.77;100.00;99482.28;5082858;28;19919;-65
2021/09/23 03:15:28;;;;;;;;;;;;;;;14.87;100.00;99474.09;5101134;27;19920;-64
2021/09/23 03:17:53;;;;;;;;;;;;;;;14.47;100.00;99470.56;5101381;28;19916;-65
2021/09/23 03:20:22;;;;;;;;;;;;;;;14.36;100.00;99460.59;5099985;28;19919;-62
2021/09/23 03:22:48;;;;;;;;;;;;;;;14.39;100.00;99458.75;5101478;28;19912;-64
2021/09/23 03:25:14;;;;;;;;;;;;;;;14.31;100.00;99457.38;5101336;28;21068;-64
2021/09/23 03:27:39;;;;;;;;;;;;;;;14.58;100.00;99445.06;5101153;28;19916;-65
2021/09/23 03:30:05;;;;;;;;;;;;;;;14.39;100.00;99439.75;5101662;28;19962;-65
2021/09/23 03:32:30;;;;;;;;;;;;;;;14.40;100.00;99426.72;5103583;28;19943;-65
2021/09/23 03:34:55;;;;;;;;;;;;;;;14.56;100.00;99419.19;5101067;28;19981;-64
2021/09/23 03:37:20;;;;;;;;;;;;;;;14.38;100.00;99418.19;5101306;28;19932;-62
2021/09/23 03:39:46;;;;;;;;;;;;;;;14.63;100.00;99412.84;5101321;28;19924;-64
2021/09/23 03:42:11;;;;;;;;;;;;;;;14.47;100.00;99424.75;5097990;28;20386;-64
2021/09/23 03:44:37;;;;;;;;;;;;;;;14.54;100.00;99417.56;5083216;28;19971;-62
2021/09/23 03:47:02;;;;;;;;;;;;;;;14.84;100.00;99410.25;5098888;28;19954;-63
2021/09/23 03:49:28;;;;;;;;;;;;;;;14.41;100.00;99401.66;5099126;28;19982;-65
2021/09/23 03:51:53;;;;;;;;;;;;;;;14.41;100.00;99406.84;5101457;28;19916;-61
2021/09/23 03:54:18;;;;;;;;;;;;;;;14.38;100.00;99402.63;5081173;28;20347;-64
2021/09/23 03:56:44;;;;;;;;;;;;;;;14.48;100.00;99410.84;5100169;28;20050;-64
2021/09/23 03:59:09;;;;;;;;;;;;;;;14.26;100.00;99404.91;5099992;28;19911;-65
2021/09/23 04:01:34;;;;;;;;;;;;;;;14.36;100.00;99408.78;5101735;28;19918;-64
2021/09/23 04:04:00;;;;;;;;;;;;;;;14.58;100.00;99409.63;5100415;28;19965;-64
2021/09/23 04:06:25;;;;;;;;;;;;;;;14.49;100.00;99403.94;5101785;28;19924;-65
2021/09/23 04:08:50;;;;;;;;;;;;;;;14.48;100.00;99410.84;5101771;28;20449;-62
2021/09/23 04:11:16;;;;;;;;;;;;;;;14.57;100.00;99409.69;5100237;28;19924;-65
2021/09/23 04:13:41;;;;;;;;;;;;;;;14.54;100.00;99402.88;5099467;27;19995;-64
2021/09/23 04:16:06;;;;;;;;;;;;;;;14.67;100.00;99399.78;5083755;28;19938;-64
2021/09/23 04:18:32;;;;;;;;;;;;;;;14.66;100.00;99401.50;5067047;28;20301;-65
2021/09/23 04:20:57;;;;;;;;;;;;;;;14.52;100.00;99404.66;5100961;28;19920;-65
2021/09/23 04:23:22;;;;;;;;;;;;;;;14.64;100.00;99404.19;5100938;28;19911;-64
2021/09/23 04:25:48;;;;;;;;;;;;;;;14.51;100.00;99402.97;5082450;28;19916;-64
2021/09/23 04:28:13;;;;;;;;;;;;;;;14.67;100.00;99397.19;5082501;28;20319;-64
2021/09/23 04:30:39;;;;;;;;;;;;;;;14.32;100.00;99404.63;5101120;28;19912;-65
2021/09/23 04:33:04;;;;;;;;;;;;;;;14.54;100.00;99397.69;5096114;28;20405;-65
2021/09/23 04:35:29;;;;;;;;;;;;;;;14.31;100.00;99408.13;5099872;28;20395;-64
2021/09/23 04:37:55;;;;;;;;;;;;;;;14.56;100.00;99401.06;5083255;28;19918;-62
2021/09/23 04:40:20;;;;;;;;;;;;;;;14.80;100.00;99398.31;5100601;28;20257;-62
2021/09/23 04:42:45;;;;;;;;;;;;;;;14.58;100.00;99409.63;5083482;28;19911;-65
2021/09/23 04:45:11;;;;;;;;;;;;;;;14.54;100.00;99408.06;5100048;28;19912;-64
2021/09/23 04:47:37;;;;;;;;;;;;;;;14.77;100.00;99404.50;5068126;28;19953;-64
2021/09/23 04:50:04;;;;;;;;;;;;;;;14.80;100.00;99403.50;5064927;28;19912;-64
2021/09/23 04:52:29;;;;;;;;;;;;;;;14.76;100.00;99408.00;5081238;28;19918;-65
2021/09/23 04:54:54;;;;;;;;;;;;;;;14.66;100.00;99411.03;5083895;28;19923;-62
2021/09/23 04:57:33;;;;;;;;;;;;;;;14.70;100.00;99397.88;5102605;28;19974;-64
2021/09/23 04:59:59;;;;;;;;;;;;;;;14.55;100.00;99406.31;5095549;28;19945;-65
2021/09/23 05:02:24;;;;;;;;;;;;;;;14.74;100.00;99403.78;5081115;28;19916;-62
2021/09/23 05:04:49;;;;;;;;;;;;;;;14.80;100.00;99398.31;5079351;28;19916;-62
2021/09/23 05:07:15;;;;;;;;;;;;;;;14.85;100.00;99396.41;5093961;28;19924;-62
2021/09/23 05:09:40;;;;;;;;;;;;;;;14.55;100.00;99390.75;5094886;28;19916;-65
2021/09/23 05:12:05;;;;;;;;;;;;;;;14.65;100.00;99389.47;5093403;28;19950;-63
2021/09/23 05:14:31;;;;;;;;;;;;;;;14.85;100.00;99388.63;5095097;28;19919;-62
2021/09/23 05:16:56;;;;;;;;;;;;;;;14.64;100.00;99393.81;5071991;28;19920;-63
2021/09/23 05:19:22;;;;;;;;;;;;;;;14.74;100.00;99394.25;5060335;28;20024;-64
2021/09/23 05:21:47;;;;;;;;;;;;;;;14.77;100.00;99395.88;5089193;28;19942;-62
2021/09/23 05:24:16;;;;;;;;;;;;;;;14.94;100.00;99395.13;5095854;28;19923;-62
2021/09/23 05:26:42;;;;;;;;;;;;;;;14.94;100.00;99408.09;5095366;28;20373;-64
2021/09/23 05:29:07;;;;;;;;;;;;;;;14.94;100.00;99403.78;5080282;28;19915;-62
2021/09/23 05:31:32;;;;;;;;;;;;;;;14.84;100.00;99392.09;5095752;28;19920;-62
2021/09/23 05:33:58;;;;;;;;;;;;;;;14.65;100.00;99405.03;5099107;28;19915;-64
2021/09/23 05:36:23;;;;;;;;;;;;;;;14.40;100.00;99398.22;5096866;28;19921;-64
2021/09/23 05:38:48;;;;;;;;;;;;;;;14.39;100.00;99390.50;5099627;28;19916;-63
2021/09/23 05:41:14;;;;;;;;;;;;;;;14.67;100.00;99392.00;5099574;28;19998;-61
2021/09/23 05:43:39;;;;;;;;;;;;;;;14.83;100.00;99390.44;5083198;28;19913;-63
2021/09/23 05:46:05;;;;;;;;;;;;;;;14.60;100.00;99391.41;5098429;28;19959;-63
2021/09/23 05:48:30;;;;;;;;;;;;;;;14.70;100.00;99405.66;5080939;28;19912;-65
2021/09/23 05:50:55;;;;;;;;;;;;;;;15.00;100.00;99411.28;5098719;28;19913;-65
2021/09/23 05:53:21;;;;;;;;;;;;;;;15.05;100.00;99401.56;5097528;28;19915;-65
2021/09/23 05:55:46;;;;;;;;;;;;;;;15.14;100.00;99402.03;5100626;28;20051;-64
2021/09/23 05:58:11;;;;;;;;;;;;;;;15.08;100.00;99394.56;5097289;28;20315;-63
2021/09/23 06:00:37;;;;;;;;;;;;;;;14.91;100.00;99395.28;5097508;28;19923;-64
2021/09/23 06:03:02;;;;;;;;;;;;;;;14.68;100.00;99393.69;5093131;28;19916;-64
2021/09/23 06:05:27;;;;;;;;;;;;;;;14.69;100.00;99400.53;5094943;28;19920;-64
2021/09/23 06:07:53;;;;;;;;;;;;;;;14.83;100.00;99382.66;5093552;28;19931;-63
2021/09/23 06:10:18;;;;;;;;;;;;;;;15.12;100.00;99378.78;5096164;28;19916;-64
2021/09/23 06:12:43;;;;;;;;;;;;;;;15.40;100.00;99373.19;5092206;28;19931;-62
2021/09/23 06:15:09;;;;;;;;;;;;;;;15.01;100.00;99361.09;5078597;28;19947;-62
2021/09/23 06:17:35;;;;;;;;;;;;;;;15.36;100.00;99363.00;5098788;28;19956;-64
2021/09/23 06:20:00;;;;;;;;;;;;;;;15.38;100.00;99359.44;5073834;28;19915;-64
2021/09/23 06:22:25;;;;;;;;;;;;;;;15.33;100.00;99357.97;5099481;28;19920;-64
2021/09/23 06:24:51;;;;;;;;;;;;;;;15.23;100.00;99354.94;5097485;28;19941;-64
2021/09/23 06:27:16;;;;;;;;;;;;;;;15.45;100.00;99353.03;5101235;28;19912;-62
2021/09/23 06:29:41;;;;;;;;;;;;;;;15.45;100.00;99345.25;5068333;28;20030;-62
2021/09/23 06:32:07;;;;;;;;;;;;;;;15.51;100.00;99348.47;5098727;28;19920;-64
2021/09/23 06:34:32;;;;;;;;;;;;;;;15.73;100.00;99341.38;5098953;28;20389;-63
2021/09/23 06:36:57;;;;;;;;;;;;;;;15.41;100.00;99346.31;5098521;28;19924;-65
2021/09/23 06:39:23;;;;;;;;;;;;;;;15.44;100.00;99338.41;5096565;28;20009;-64
2021/09/23 06:41:48;;;;;;;;;;;;;;;15.46;100.00;99343.50;5099826;28;19916;-63
2021/09/23 06:44:13;;;;;;;;;;;;;;;15.78;100.00;99331.66;5099433;28;20226;-64
2021/09/23 06:46:39;;;;;;;;;;;;;;;15.98;100.00;99341.03;5097610;28;19951;-64
2021/09/23 06:49:05;;;;;;;;;;;;;;;16.07;100.00;99329.38;5081301;28;19916;-64
2021/09/23 06:51:30;;;;;;;;;;;;;;;15.92;100.00;99332.72;5101492;28;19912;-61
2021/09/23 06:53:57;;;;;;;;;;;;;;;15.91;100.00;99331.88;5105775;28;19956;-64
2021/09/23 06:56:22;;;;;;;;;;;;;;;16.02;100.00;99333.97;5098155;28;20049;-64
2021/09/23 06:58:47;;;;;;;;;;;;;;;15.96;100.00;99342.03;5099888;28;20006;-64
2021/09/23 07:01:13;;;;;;;;;;;;;;;16.06;100.00;99343.28;5084985;28;19916;-62
2021/09/23 07:03:38;;;;;;;;;;;;;;;16.06;100.00;99351.09;5098169;28;19923;-64
2021/09/23 07:06:03;;;;;;;;;;;;;;;15.83;100.00;99350.44;5082537;28;19923;-64
2021/09/23 07:08:29;;;;;;;;;;;;;;;16.29;100.00;99348.19;5103545;28;19916;-64
2021/09/23 07:10:54;;;;;;;;;;;;;;;16.27;100.00;99347.41;5101936;28;19915;-64
2021/09/23 07:13:19;;;;;;;;;;;;;;;16.35;100.00;99351.38;5101932;28;19961;-64
2021/09/23 07:15:45;;;;;;;;;;;;;;;16.70;100.00;99342.63;5082867;28;19920;-62
2021/09/23 07:18:10;;;;;;;;;;;;;;;16.78;100.00;99333.59;5096774;28;19923;-65
2021/09/23 07:20:35;;;;;;;;;;;;;;;16.85;100.00;99335.81;5099350;28;20464;-64
2021/09/23 07:23:01;;;;;;;;;;;;;;;16.76;100.00;99345.84;5100032;28;19920;-64
2021/09/23 07:25:26;;;;;;;;;;;;;;;16.94;100.00;99344.91;5100778;28;20002;-62
2021/09/23 07:27:52;;;;;;;;;;;;;;;16.90;100.00;99340.78;5100895;28;19951;-64
2021/09/23 07:30:18;;;;;;;;;;;;;;;16.87;100.00;99340.94;5100478;28;21158;-64
2021/09/23 07:32:43;;;;;;;;;;;;;;;16.81;100.00;99336.06;5098507;28;21333;-64
2021/09/23 07:35:09;;;;;;;;;;;;;;;16.97;100.00;99334.34;5101124;28;19920;-64
2021/09/23 07:37:34;;;;;;;;;;;;;;;17.04;100.00;99335.69;5079909;28;20364;-64
2021/09/23 07:40:00;;;;;;;;;;;;;;;16.87;100.00;99328.78;5100856;28;19912;-64
2021/09/23 07:42:25;;;;;;;;;;;;;;;17.40;100.00;99339.81;5102094;28;19916;-61
2021/09/23 07:44:50;;;;;;;;;;;;;;;17.24;100.00;99341.59;5101503;28;19915;-64
2021/09/23 07:47:16;;;;;;;;;;;;;;;17.59;100.00;99339.66;5080841;28;19951;-64
2021/09/23 07:49:41;;;;;;;;;;;;;;;17.38;100.00;99341.69;5100116;28;19916;-64
2021/09/23 07:52:06;;;;;;;;;;;;;;;17.99;100.00;99337.44;5097851;28;20021;-65
2021/09/23 07:54:32;;;;;;;;;;;;;;;17.25;100.00;99332.88;5100426;28;19915;-65
2021/09/23 07:56:58;;;;;;;;;;;;;;;17.58;100.00;99329.31;5100084;28;19924;-62
2021/09/23 07:59:23;;;;;;;;;;;;;;;17.87;100.00;99323.34;5100063;28;19916;-62
2021/09/23 08:01:48;;;;;;;;;;;;;;;17.92;100.00;99321.31;5104226;28;20007;-62
2021/09/23 08:04:14;;;;;;;;;;;;;;;18.52;100.00;99322.19;5103067;28;19911;-64
2021/09/23 08:06:40;;;;;;;;;;;;;;;17.89;100.00;99308.47;5098486;28;20407;-64
2021/09/23 08:09:05;;;;;;;;;;;;;;;18.24;100.00;99318.63;5097008;28;19916;-65
2021/09/23 08:11:31;;;;;;;;;;;;;;;18.43;100.00;99318.41;5098980;28;19916;-64
2021/09/23 08:13:56;;;;;;;;;;;;;;;18.30;100.00;99310.44;5098119;28;19916;-65
2021/09/23 08:16:22;;;;;;;;;;;;;;;18.45;100.00;99316.53;5102001;28;19946;-64
2021/09/23 08:18:47;;;;;;;;;;;;;;;18.25;100.00;99314.25;5102444;28;19912;-64
2021/09/23 08:21:12;;;;;;;;;;;;;;;18.48;100.00;99295.47;5083202;28;19912;-64
2021/09/23 08:23:38;;;;;;;;;;;;;;;19.09;100.00;99290.94;5099634;28;19945;-64
2021/09/23 08:26:03;;;;;;;;;;;;;;;19.23;100.00;99277.84;5081731;28;19916;-65
2021/09/23 08:28:29;;;;;;;;;;;;;;;18.86;100.00;99281.06;5098954;28;19915;-62
2021/09/23 08:30:56;;;;;;;;;;;;;;;19.16;97.39;99273.13;5098602;28;19919;-64
2021/09/23 08:33:22;;;;;;;;;;;;;;;19.77;96.88;99273.56;5101527;28;20010;-62
2021/09/23 08:35:48;;;;;;;;;;;;;;;19.65;94.78;99275.19;5085332;28;19996;-65
2021/09/23 08:38:17;;;;;;;;;;;;;;;19.21;100.00;99281.47;5096584;28;20420;-64
2021/09/23 08:40:43;;;;;;;;;;;;;;;19.25;100.00;99279.50;5100645;28;19911;-64
2021/09/23 08:43:09;;;;;;;;;;;;;;;20.22;97.33;99271.44;5077500;28;19923;-65
2021/09/23 08:45:34;;;;;;;;;;;;;;;19.81;92.29;99259.38;5070420;28;20373;-64
2021/09/23 08:47:59;;;;;;;;;;;;;;;19.75;91.32;99250.16;5098090;28;19919;-64
2021/09/23 08:50:25;;;;;;;;;;;;;;;19.57;93.35;99244.34;5081369;28;19915;-64
2021/09/23 08:52:50;;;;;;;;;;;;;;;20.10;91.64;99225.22;5084826;28;19977;-64
2021/09/23 08:55:23;;;;;;;;;;;;;;;19.79;94.35;99222.03;5098118;28;19976;-65
2021/09/23 08:57:48;;;;;;;;;;;;;;;19.75;93.47;99231.00;5078734;28;19920;-64
2021/09/23 09:00:21;;;;;;;;;;;;;;;19.91;93.02;99230.84;5100289;28;19939;-64
2021/09/23 09:03:02;;;;;;;;;;;;;;;21.16;87.06;99229.13;5098858;28;19919;-62
2021/09/23 09:05:27;;;;;;;;;;;;;;;20.78;89.65;99224.88;5100700;28;19915;-64
2021/09/23 09:08:05;;;;;;;;;;;;;;;19.61;90.86;99213.59;5098040;28;19930;-65
2021/09/23 09:10:31;;;;;;;;;;;;;;;19.74;89.18;99208.44;5097751;28;19922;-65
2021/09/23 09:13:06;;;;;;;;;;;;;;;20.38;84.36;99204.06;5098560;28;19913;-62
2021/09/23 09:15:33;;;;;;;;;;;;;;;19.76;93.42;99193.50;5100587;28;19922;-64
2021/09/23 09:18:00;;;;;;;;;;;;;;;20.35;89.06;99203.47;5100873;28;20091;-64
2021/09/23 09:20:25;;;;;;;;;;;;;;;19.44;86.19;99206.88;5082129;28;19919;-61
2021/09/23 09:22:50;;;;;;;;;;;;;;;20.42;83.56;99213.38;5102061;28;19916;-64
2021/09/23 09:25:16;;;;;;;;;;;;;;;19.80;88.63;99213.28;5098174;28;20402;-61
2021/09/23 09:27:46;;;;;;;;;;;;;;;20.26;88.17;99194.47;5099603;28;19912;-63
2021/09/23 09:30:11;;;;;;;;;;;;;;;20.02;83.26;99196.97;5096091;28;19922;-64
2021/09/23 09:32:38;;;;;;;;;;;;;;;20.43;85.99;99194.13;5094611;28;19924;-64
2021/09/23 09:35:05;;;;;;;;;;;;;;;19.76;84.05;99190.88;5095593;28;19931;-64
2021/09/23 09:37:32;;;;;;;;;;;;;;;20.62;84.47;99190.25;5078165;28;19919;-64
2021/09/23 09:39:57;;;;;;;;;;;;;;;20.78;84.78;99190.84;5096415;28;19915;-63
2021/09/23 09:42:23;;;;;;;;;;;;;;;20.52;81.79;99184.78;5095781;28;20039;-61
2021/09/23 09:44:55;;;;;;;;;;;;;;;21.10;81.04;99185.09;5097625;28;20385;-63
2021/09/23 09:47:33;;;;;;;;;;;;;;;20.42;85.66;99208.16;5084852;28;19912;-63
2021/09/23 09:49:58;;;;;;;;;;;;;;;21.02;84.77;99208.34;5080402;28;19916;-61
2021/09/23 09:52:28;;;;;;;;;;;;;;;20.83;80.06;99193.13;5096983;28;19923;-64
2021/09/23 09:55:19;;;;;;;;;;;;;;;20.61;82.88;99163.25;5096807;28;20331;-63
2021/09/23 09:57:46;;;;;;;;;;;;;;;21.06;81.34;99183.63;5091872;28;19920;-63
2021/09/23 10:00:11;;;;;;;;;;;;;;;21.36;76.67;99187.56;5096841;28;19916;-63
2021/09/23 10:02:37;;;;;;;;;;;;;;;22.59;80.15;99181.72;5077740;28;19923;-63
2021/09/23 10:05:02;;;;;;;;;;;;;;;23.33;75.53;99170.56;5080434;28;19943;-63
2021/09/23 10:07:27;;;;;;;;;;;;;;;21.61;77.52;99176.97;5077672;28;19931;-64
2021/09/23 10:09:53;;;;;;;;;;;;;;;22.19;74.20;99168.22;5099696;28;19912;-63
2021/09/23 10:12:19;;;;;;;;;;;;;;;23.16;79.81;99162.28;5096684;28;19965;-63
2021/09/23 10:14:44;;;;;;;;;;;;;;;22.81;75.17;99162.50;5080036;28;19916;-63
2021/09/23 10:17:10;;;;;;;;;;;;;;;21.99;71.58;99159.31;5084024;28;19919;-63
2021/09/23 10:19:35;;;;;;;;;;;;;;;21.78;69.13;99149.50;5081847;28;19958;-63
2021/09/23 10:22:00;;;;;;;;;;;;;;;22.80;76.45;99137.19;5076325;28;19920;-61
2021/09/23 10:24:26;;;;;;;;;;;;;;;22.37;69.99;99140.59;5080023;28;20018;-63
2021/09/23 10:26:51;;;;;;;;;;;;;;;22.42;73.58;99122.72;5102940;28;19938;-63
2021/09/23 10:29:16;;;;;;;;;;;;;;;21.34;68.89;99129.22;5084521;28;19923;-63
2021/09/23 10:31:44;;;;;;;;;;;;;;;22.18;71.99;99132.47;5102072;28;19919;-60
2021/09/23 10:34:12;;;;;;;;;;;;;;;22.23;70.25;99135.59;5103286;28;19916;-61
2021/09/23 10:36:38;;;;;;;;;;;;;;;22.63;79.00;99121.97;5103407;28;20002;-64
2021/09/23 10:39:05;;;;;;;;;;;;;;;22.88;67.48;99133.94;5084006;28;20006;-61
2021/09/23 10:41:30;;;;;;;;;;;;;;;22.01;67.22;99125.91;5103202;28;19916;-64
2021/09/23 10:43:56;;;;;;;;;;;;;;;22.51;74.30;99132.47;5082610;28;20530;-64
2021/09/23 10:46:23;;;;;;;;;;;;;;;22.51;70.45;99135.09;5081607;28;20429;-63
2021/09/23 10:48:49;;;;;;;;;;;;;;;23.25;73.37;99129.16;5082625;28;19997;-63
2021/09/23 10:51:15;;;;;;;;;;;;;;;22.42;70.02;99132.34;5086744;28;20377;-63
2021/09/23 10:53:42;;;;;;;;;;;;;;;23.16;68.12;99136.00;5098098;28;20030;-64
2021/09/23 10:56:08;;;;;;;;;;;;;;;23.24;66.98;99122.25;5082141;28;19927;-63
2021/09/23 10:58:33;;;;;;;;;;;;;;;23.11;67.99;99125.06;5105860;28;19912;-63
2021/09/23 11:01:00;;;;;;;;;;;;;;;23.12;76.00;99123.25;5082461;28;20862;-63
2021/09/23 11:03:30;;;;;;;;;;;;;;;22.94;66.84;99112.41;5099060;28;19941;-63
2021/09/23 11:05:55;;;;;;;;;;;;;;;23.40;66.20;99116.56;5105285;28;20010;-64
2021/09/23 11:08:21;;;;;;;;;;;;;;;22.06;70.70;99108.88;5104409;28;20114;-64
2021/09/23 11:10:46;;;;;;;;;;;;;;;22.24;69.27;99103.19;5085238;28;19994;-63
2021/09/23 11:13:12;;;;;;;;;;;;;;;22.45;71.33;99105.88;5083828;28;19916;-61
2021/09/23 11:15:42;;;;;;;;;;;;;;;23.67;63.87;99110.75;5082254;28;19919;-61
2021/09/23 11:18:07;;;;;;;;;;;;;;;23.03;64.96;99103.00;5097785;28;19912;-64
2021/09/23 11:20:33;;;;;;;;;;;;;;;23.43;66.89;99097.06;5100233;28;19918;-63
2021/09/23 11:23:03;;;;;;;;;;;;;;;23.17;62.47;99092.16;5083083;28;19926;-64
2021/09/23 11:25:32;;;;;;;;;;;;;;;23.76;63.65;99094.22;5100880;28;20286;-63
2021/09/23 11:27:58;;;;;;;;;;;;;;;22.63;63.88;99093.91;5085128;28;19951;-63
2021/09/23 11:30:24;;;;;;;;;;;;;;;23.46;59.89;99091.56;5101262;28;20333;-64
2021/09/23 11:32:57;;;;;;;;;;;;;;;21.86;61.85;99093.84;5101085;28;19912;-64
2021/09/23 11:35:27;;;;;;;;;;;;;;;21.19;68.63;99097.97;5105312;28;19916;-63
2021/09/23 11:37:52;;;;;;;;;;;;;;;22.70;65.93;99084.59;5101876;28;20002;-60
2021/09/23 11:40:28;;;;;;;;;;;;;;;22.38;64.29;99084.53;5102183;28;20010;-63
2021/09/23 11:42:53;;;;;;;;;;;;;;;22.14;67.32;99077.59;5099720;28;20006;-63
2021/09/23 11:45:22;;;;;;;;;;;;;;;23.00;62.73;99063.84;5100122;28;20389;-63
2021/09/23 11:47:59;;;;;;;;;;;;;;;22.93;61.66;99074.00;5100090;28;19912;-63
2021/09/23 11:50:41;;;;;;;;;;;;;;;23.29;59.03;99058.81;5100387;28;19992;-60
2021/09/23 11:53:09;;;;;;;;;;;;;;;23.04;59.95;99050.34;5099419;28;19916;-63
2021/09/23 11:55:35;;;;;;;;;;;;;;;23.13;60.53;99054.84;5106929;28;21149;-63
2021/09/23 11:58:07;;;;;;;;;;;;;;;22.51;60.33;99043.25;5092081;28;19994;-63
2021/09/23 12:00:34;;;;;;;;;;;;;;;22.66;64.12;99040.31;5103893;28;19911;-64
2021/09/23 12:02:59;;;;;;;;;;;;;;;22.19;62.67;99037.06;5102576;28;20466;-64
2021/09/23 12:05:26;;;;;;;;;;;;;;;22.89;64.74;99044.53;5105182;28;19916;-64
2021/09/23 12:07:52;;;;;;;;;;;;;;;23.86;57.28;99032.97;5102514;28;19920;-64
2021/09/23 12:10:20;;;;;;;;;;;;;;;22.41;60.03;99037.06;5103576;28;19920;-63
2021/09/23 12:12:56;;;;;;;;;;;;;;;22.45;63.30;99046.34;5102593;28;19922;-60
2021/09/23 12:15:22;;;;;;;;;;;;;;;22.04;63.78;99047.81;5082819;28;19924;-63
2021/09/23 12:17:57;;;;;;;;;;;;;;;22.51;65.51;99053.75;5083552;28;19912;-63
2021/09/23 12:20:38;;;;;;;;;;;;;;;21.87;65.67;99059.66;5083313;28;20480;-63
2021/09/23 12:23:22;;;;;;;;;;;;;;;21.96;66.89;99055.44;5097618;28;19972;-63
2021/09/23 12:26:03;;;;;;;;;;;;;;;21.95;68.04;99053.78;5096616;28;19965;-64
2021/09/23 12:28:29;;;;;;;;;;;;;;;22.40;65.26;99051.16;5097928;28;19922;-61
2021/09/23 12:30:58;;;;;;;;;;;;;;;22.86;62.13;99034.28;5077267;28;19916;-63
2021/09/23 12:33:24;;;;;;;;;;;;;;;23.83;61.29;99031.41;5101000;28;20003;-63
2021/09/23 12:36:05;;;;;;;;;;;;;;;23.97;61.76;99027.59;5101515;28;20026;-61